Time;durP1;ratioP1;P1;durP2;ratioP2;P2;SDS_P1;SDS_P2;PMS_P1;PMS_P2;Temp;Humidity;BMP_temperature;BMP_pressure;BME280_temperature;BME280_humidity;BME280_pressure;Samples;Min_cycle;Max_cycle;Signal;HPM_P1;HPM_P2
2021/05/18 00:01:31;;;;;;;48.90;8.43;;;;;;;;;;5104289;28;20035;-82
2021/05/18 00:03:56;;;;;;;50.97;8.30;;;;;;;;;;5104218;28;20012;-82
2021/05/18 00:06:21;;;;;;;43.63;8.47;;;;;;;;;;5100967;28;20104;-81
2021/05/18 00:11:44;;;;;;;51.87;9.27;;;;;;;;;;5107708;28;20105;-81
2021/05/18 00:14:28;;;;;;;49.83;9.77;;;;;;;;;;5107209;28;20019;-81
2021/05/18 00:16:54;;;;;;;51.73;10.47;;;;;;;;;;5101261;28;20024;-81
2021/05/18 00:19:20;;;;;;;56.13;10.20;;;;;;;;;;5102908;28;20111;-81
2021/05/18 00:21:45;;;;;;;51.27;10.47;;;;;;;;;;5100124;28;20105;-81
2021/05/18 00:24:11;;;;;;;53.00;10.70;;;;;;;;;;5101257;28;20084;-81
2021/05/18 00:26:36;;;;;;;52.17;11.23;;;;;;;;;;5102979;28;20075;-81
2021/05/18 00:29:02;;;;;;;55.03;10.37;;;;;;;;;;5106157;28;20076;-81
2021/05/18 00:31:27;;;;;;;54.43;11.80;;;;;;;;;;5106543;28;20028;-81
2021/05/18 00:33:52;;;;;;;58.83;10.70;;;;;;;;;;5087344;28;20028;-82
2021/05/18 00:36:18;;;;;;;48.03;10.43;;;;;;;;;;5100185;28;20020;-82
2021/05/18 00:38:43;;;;;;;46.83;10.70;;;;;;;;;;5100678;28;20054;-82
2021/05/18 00:41:09;;;;;;;57.40;11.07;;;;;;;;;;5105355;28;20023;-82
2021/05/18 00:43:35;;;;;;;45.20;9.70;;;;;;;;;;5105962;28;20083;-82
2021/05/18 00:46:01;;;;;;;44.17;10.60;;;;;;;;;;5099596;28;20020;-82
2021/05/18 00:48:27;;;;;;;48.50;10.03;;;;;;;;;;5102164;28;20026;-82
2021/05/18 00:50:57;;;;;;;47.60;10.20;;;;;;;;;;5101199;28;20024;-82
2021/05/18 00:53:23;;;;;;;39.57;9.03;;;;;;;;;;5103136;28;20028;-82
2021/05/18 00:55:55;;;;;;;41.03;9.33;;;;;;;;;;5098356;28;20023;-81
2021/05/18 00:58:26;;;;;;;44.85;9.27;;;;;;;;;;5094710;28;20027;-81
2021/05/18 01:00:52;;;;;;;50.50;10.35;;;;;;;;;;5094678;28;20104;-81
2021/05/18 01:03:18;;;;;;;39.70;8.13;;;;;;;;;;5093286;28;20059;-81
2021/05/18 01:08:27;;;;;;;51.63;9.87;;;;;;;;;;5099639;28;20035;-82
2021/05/18 01:10:53;;;;;;;44.00;9.77;;;;;;;;;;5099718;28;20020;-81
2021/05/18 01:13:18;;;;;;;48.20;8.83;;;;;;;;;;5103872;28;20012;-81
2021/05/18 01:15:43;;;;;;;56.60;10.30;;;;;;;;;;5102466;28;20012;-81
2021/05/18 01:18:09;;;;;;;41.27;9.20;;;;;;;;;;5103476;28;20020;-81
2021/05/18 01:20:38;;;;;;;41.77;8.60;;;;;;;;;;5101965;28;20012;-81
2021/05/18 01:23:03;;;;;;;43.13;9.33;;;;;;;;;;5102637;28;20099;-81
2021/05/18 01:25:28;;;;;;;38.20;8.77;;;;;;;;;;5099807;28;20085;-81
2021/05/18 01:27:54;;;;;;;42.30;8.70;;;;;;;;;;5095371;28;20021;-81
2021/05/18 01:30:19;;;;;;;37.10;8.47;;;;;;;;;;5091622;28;20056;-82
2021/05/18 01:32:44;;;;;;;43.17;9.90;;;;;;;;;;5099629;28;20020;-82
2021/05/18 01:35:13;;;;;;;42.80;8.87;;;;;;;;;;5103055;28;20035;-82
2021/05/18 01:37:40;;;;;;;40.73;9.03;;;;;;;;;;5102710;28;20020;-82
2021/05/18 01:42:45;;;;;;;33.10;7.93;;;;;;;;;;5096610;28;20020;-82
2021/05/18 01:42:59;;;;;;;37.80;9.00;;;;;;;;;;5098137;28;20024;-82
2021/05/18 01:45:25;;;;;;;39.07;8.33;;;;;;;;;;5098709;28;20055;-82
2021/05/18 01:47:53;;;;;;;34.63;8.13;;;;;;;;;;5098081;28;20097;-82
2021/05/18 01:50:21;;;;;;;32.63;7.57;;;;;;;;;;5088469;28;20081;-81
2021/05/18 01:52:47;;;;;;;29.67;8.23;;;;;;;;;;5096527;28;20035;-82
2021/05/18 01:55:16;;;;;;;33.93;7.67;;;;;;;;;;5095678;28;20028;-82
2021/05/18 01:57:41;;;;;;;34.40;7.83;;;;;;;;;;5094032;28;20059;-81
2021/05/18 02:00:08;;;;;;;35.53;8.23;;;;;;;;;;5102381;28;20035;-82
2021/05/18 02:02:33;;;;;;;31.07;7.73;;;;;;;;;;5098456;28;20028;-82
2021/05/18 02:05:04;;;;;;;34.30;7.60;;;;;;;;;;5101159;28;20026;-82
2021/05/18 02:07:33;;;;;;;34.87;7.60;;;;;;;;;;5101288;28;20027;-82
2021/05/18 02:09:58;;;;;;;23.63;6.50;;;;;;;;;;5094804;28;20012;-81
2021/05/18 02:12:24;;;;;;;25.17;6.97;;;;;;;;;;5099997;28;20050;-82
2021/05/18 02:14:56;;;;;;;33.13;7.73;;;;;;;;;;5094702;28;20047;-82
2021/05/18 02:17:39;;;;;;;23.58;7.13;;;;;;;;;;5081138;28;20077;-82
2021/05/18 02:25:25;;;;;;;21.67;6.47;;;;;;;;;;5094044;28;20387;-82
2021/05/18 02:27:52;;;;;;;23.70;6.77;;;;;;;;;;5096087;28;20013;-82
2021/05/18 02:30:19;;;;;;;31.43;7.37;;;;;;;;;;5096376;28;20028;-81
2021/05/18 02:32:44;;;;;;;20.93;6.00;;;;;;;;;;5098223;28;20043;-81
2021/05/18 02:35:11;;;;;;;23.57;6.13;;;;;;;;;;5099071;28;20095;-82
2021/05/18 02:37:38;;;;;;;22.23;6.30;;;;;;;;;;5095181;28;20020;-82
2021/05/18 02:40:07;;;;;;;21.73;6.07;;;;;;;;;;5101553;28;20490;-82
2021/05/18 02:42:32;;;;;;;18.50;6.13;;;;;;;;;;5096322;28;20021;-82
2021/05/18 02:45:09;;;;;;;24.10;7.17;;;;;;;;;;5082134;28;20036;-82
2021/05/18 02:50:18;;;;;;;21.53;6.37;;;;;;;;;;5092245;28;20097;-81
2021/05/18 02:52:43;;;;;;;25.07;6.10;;;;;;;;;;5103251;28;20028;-81
2021/05/18 02:55:13;;;;;;;24.50;6.53;;;;;;;;;;5098835;28;20077;-81
2021/05/18 02:57:38;;;;;;;20.83;6.60;;;;;;;;;;5101564;28;20039;-81
2021/05/18 03:00:06;;;;;;;19.93;6.73;;;;;;;;;;5102268;28;20016;-80
2021/05/18 03:02:31;;;;;;;19.40;6.03;;;;;;;;;;5092468;28;20020;-81
2021/05/18 03:04:57;;;;;;;22.83;6.80;;;;;;;;;;5100965;28;20012;-81
2021/05/18 03:07:22;;;;;;;23.77;6.07;;;;;;;;;;5101957;28;20008;-81
2021/05/18 03:09:47;;;;;;;21.47;6.00;;;;;;;;;;5094297;28;20027;-81
2021/05/18 03:12:12;;;;;;;23.97;6.87;;;;;;;;;;5101250;28;20484;-81
2021/05/18 03:14:38;;;;;;;22.40;5.77;;;;;;;;;;5099857;28;20072;-82
2021/05/18 03:17:03;;;;;;;24.80;6.83;;;;;;;;;;5092312;28;20023;-82
2021/05/18 03:19:29;;;;;;;16.23;6.13;;;;;;;;;;5095210;28;20028;-82
2021/05/18 03:21:54;;;;;;;19.17;6.13;;;;;;;;;;5085622;28;20021;-82
2021/05/18 03:24:19;;;;;;;19.10;5.67;;;;;;;;;;5091062;28;20050;-82
2021/05/18 03:26:47;;;;;;;17.87;5.70;;;;;;;;;;5095054;28;20013;-82
2021/05/18 03:29:32;;;;;;;25.10;7.33;;;;;;;;;;5097146;28;20031;-82
2021/05/18 03:34:42;;;;;;;20.73;6.53;;;;;;;;;;5101328;28;20502;-81
2021/05/18 03:37:16;;;;;;;17.37;6.27;;;;;;;;;;5094804;28;20024;-81
2021/05/18 03:39:42;;;;;;;19.87;6.30;;;;;;;;;;5099332;28;20016;-81
2021/05/18 03:42:17;;;;;;;20.33;5.67;;;;;;;;;;5100132;28;20024;-82
2021/05/18 04:17:10;;;;;;;17.00;5.87;;;;;;;;;;5097744;28;20420;-82
2021/05/18 04:19:39;;;;;;;16.43;5.47;;;;;;;;;;5082447;28;20040;-82
2021/05/18 04:22:25;;;;;;;16.43;5.80;;;;;;;;;;5093208;28;20073;-82
2021/05/18 04:41:18;;;;;;;19.70;5.57;;;;;;;;;;5103540;28;20027;-81
2021/05/18 04:51:52;;;;;;;16.93;5.83;;;;;;;;;;5102466;28;20040;-81
2021/05/18 05:02:56;;;;;;;14.37;4.90;;;;;;;;;;5101182;28;20066;-82
2021/05/18 05:07:58;;;;;;;14.87;4.97;;;;;;;;;;5093241;28;20062;-82
2021/05/18 05:12:29;;;;;;;15.60;5.70;;;;;;;;;;5095475;28;20025;-82
2021/05/18 05:15:39;;;;;;;14.37;5.17;;;;;;;;;;5100465;28;20032;-81
2021/05/18 05:18:04;;;;;;;12.27;4.77;;;;;;;;;;5102664;28;20028;-81
2021/05/18 05:20:30;;;;;;;11.03;4.73;;;;;;;;;;5104348;28;20109;-81
2021/05/18 05:22:55;;;;;;;13.37;5.40;;;;;;;;;;5100153;28;20080;-82
2021/05/18 05:25:21;;;;;;;12.40;5.33;;;;;;;;;;5099133;28;20377;-82
2021/05/18 05:27:46;;;;;;;15.03;5.20;;;;;;;;;;5095368;28;20066;-82
2021/05/18 05:30:11;;;;;;;11.47;4.90;;;;;;;;;;5101591;28;20524;-81
2021/05/18 05:32:37;;;;;;;17.13;5.40;;;;;;;;;;5101184;28;20043;-82
2021/05/18 05:35:02;;;;;;;16.03;5.47;;;;;;;;;;5097123;28;20039;-81
2021/05/18 05:37:28;;;;;;;12.20;5.00;;;;;;;;;;5100419;28;20032;-82
2021/05/18 05:39:53;;;;;;;13.13;4.90;;;;;;;;;;5101017;28;20024;-82
2021/05/18 05:42:20;;;;;;;12.70;4.83;;;;;;;;;;5097238;28;20038;-81
2021/05/18 05:44:45;;;;;;;11.30;4.47;;;;;;;;;;5102783;28;20040;-81
2021/05/18 05:47:10;;;;;;;13.80;4.93;;;;;;;;;;5096644;28;20027;-82
2021/05/18 05:49:36;;;;;;;12.17;4.67;;;;;;;;;;5102079;28;20031;-82
2021/05/18 05:52:01;;;;;;;17.33;5.57;;;;;;;;;;5099038;28;20025;-82
2021/05/18 05:54:26;;;;;;;14.97;4.77;;;;;;;;;;5101351;28;20031;-81
2021/05/18 05:56:52;;;;;;;13.77;5.50;;;;;;;;;;5097363;28;20027;-81
2021/05/18 05:59:19;;;;;;;12.77;4.33;;;;;;;;;;5092831;28;20077;-81
2021/05/18 06:01:44;;;;;;;12.57;4.80;;;;;;;;;;5088949;28;20024;-81
2021/05/18 06:04:09;;;;;;;12.50;4.77;;;;;;;;;;5097635;28;20387;-81
2021/05/18 06:06:35;;;;;;;14.20;4.70;;;;;;;;;;5094572;28;20105;-81
2021/05/18 06:09:00;;;;;;;11.70;4.83;;;;;;;;;;5088506;28;20020;-81
2021/05/18 06:11:47;;;;;;;9.97;4.67;;;;;;;;;;5093518;28;20082;-81
2021/05/18 06:43:25;;;;;;;9.17;4.27;;;;;;;;;;5100462;28;20028;-81
2021/05/18 06:48:34;;;;;;;8.40;3.77;;;;;;;;;;5093901;28;20043;-81
2021/05/18 06:51:00;;;;;;;6.73;3.23;;;;;;;;;;5096260;28;20008;-81
2021/05/18 06:53:25;;;;;;;7.03;3.40;;;;;;;;;;5097010;28;20494;-79
2021/05/18 06:55:52;;;;;;;8.67;3.60;;;;;;;;;;5087764;28;20089;-79
2021/05/18 06:58:35;;;;;;;7.20;3.70;;;;;;;;;;5094449;28;20448;-79
2021/05/18 07:01:00;;;;;;;;;;;;;;;;;;5095994;28;20055;-79
2021/05/18 07:03:27;;;;;;;6.63;3.47;;;;;;;;;;5096036;28;20264;-80
2021/05/18 07:05:59;;;;;;;7.83;3.33;;;;;;;;;;5095260;28;20115;-79
2021/05/18 07:10:53;;;;;;;6.67;3.27;;;;;;;;;;5086788;28;20108;-79
2021/05/18 07:13:18;;;;;;;6.97;3.40;;;;;;;;;;5097704;28;20036;-79
2021/05/18 07:15:43;;;;;;;8.70;3.30;;;;;;;;;;5097448;28;20061;-79
2021/05/18 07:18:09;;;;;;;6.57;3.00;;;;;;;;;;5096399;28;20022;-79
2021/05/18 07:20:35;;;;;;;6.32;2.92;;;;;;;;;;5089288;28;20024;-79
2021/05/18 07:23:23;;;;;;;7.78;3.45;;;;;;;;;;5095381;28;20016;-79
2021/05/18 07:25:48;;;;;;;6.38;2.85;;;;;;;;;;5091059;28;20032;-79
2021/05/18 07:28:16;;;;;;;8.50;3.00;;;;;;;;;;5096018;28;20376;-80
2021/05/18 07:30:41;;;;;;;6.38;2.67;;;;;;;;;;5097495;28;20107;-79
2021/05/18 07:33:07;;;;;;;6.55;3.25;;;;;;;;;;5097668;28;20051;-80
2021/05/18 07:35:32;;;;;;;7.30;3.63;;;;;;;;;;5093559;28;20048;-80
2021/05/18 07:37:58;;;;;;;6.15;3.33;;;;;;;;;;5097928;28;20035;-80
2021/05/18 07:40:23;;;;;;;5.78;3.13;;;;;;;;;;5097167;28;20062;-80
2021/05/18 07:42:51;;;;;;;9.20;3.05;;;;;;;;;;5096683;28;20024;-81
2021/05/18 07:45:18;;;;;;;5.78;2.92;;;;;;;;;;5093398;28;20047;-80
2021/05/18 07:47:44;;;;;;;6.38;2.80;;;;;;;;;;5097365;28;20324;-80
2021/05/18 07:50:13;;;;;;;5.70;2.50;;;;;;;;;;5097730;28;20070;-80
2021/05/18 08:06:02;;;;;;;6.97;2.95;;;;;;;;;;5092112;28;20031;-80
2021/05/18 08:08:27;;;;;;;7.50;3.50;;;;;;;;;;5102034;28;20083;-81
2021/05/18 08:10:59;;;;;;;5.18;2.78;;;;;;;;;;5092252;28;20090;-80
2021/05/18 08:13:24;;;;;;;6.10;2.58;;;;;;;;;;5099769;28;20024;-80
2021/05/18 10:35:37;;;;;;;4.05;1.95;;;;;;;;;;5099238;28;20099;-81
2021/05/18 10:38:05;;;;;;;4.72;2.17;;;;;;;;;;5086963;28;20375;-80
2021/05/18 10:40:35;;;;;;;4.00;1.92;;;;;;;;;;5098037;28;20032;-80
2021/05/18 10:43:04;;;;;;;4.97;2.33;;;;;;;;;;5099250;28;20016;-81
2021/05/18 10:45:48;;;;;;;6.68;2.05;;;;;;;;;;5097300;28;20048;-80
2021/05/18 10:48:14;;;;;;;5.60;2.03;;;;;;;;;;5098481;28;20086;-80
2021/05/18 10:50:42;;;;;;;5.13;2.20;;;;;;;;;;5097242;28;20024;-80
2021/05/18 10:53:33;;;;;;;5.65;2.30;;;;;;;;;;5099387;28;20425;-81
2021/05/18 10:56:02;;;;;;;4.70;2.28;;;;;;;;;;5094115;28;20491;-80
2021/05/18 10:58:28;;;;;;;8.07;1.60;;;;;;;;;;5097067;28;20429;-81
2021/05/18 11:00:53;;;;;;;4.28;1.38;;;;;;;;;;5088597;28;20107;-80
2021/05/18 11:03:19;;;;;;;4.38;2.20;;;;;;;;;;5091748;28;20107;-80
2021/05/18 11:05:44;;;;;;;4.95;2.05;;;;;;;;;;5088379;28;20024;-81
2021/05/18 11:08:14;;;;;;;4.50;2.15;;;;;;;;;;5091877;28;20020;-80
2021/05/18 11:10:40;;;;;;;7.07;3.17;;;;;;;;;;5089627;28;20028;-80
2021/05/18 11:13:08;;;;;;;8.97;5.03;;;;;;;;;;5092920;28;20057;-80
2021/05/18 11:15:34;;;;;;;13.57;5.50;;;;;;;;;;5077605;28;20028;-80
2021/05/18 11:17:59;;;;;;;11.70;6.00;;;;;;;;;;5084137;28;20089;-80
2021/05/18 11:25:49;;;;;;;12.53;5.93;;;;;;;;;;5092602;28;20043;-81
2021/05/18 11:28:19;;;;;;;11.20;5.57;;;;;;;;;;5100483;28;20028;-82
2021/05/18 11:30:46;;;;;;;10.03;5.23;;;;;;;;;;5100500;28;20016;-81
2021/05/18 11:33:11;;;;;;;11.73;5.53;;;;;;;;;;5104354;28;20020;-81
2021/05/18 11:35:37;;;;;;;13.60;5.50;;;;;;;;;;5104999;28;20509;-81
2021/05/18 11:38:02;;;;;;;9.83;5.13;;;;;;;;;;5094716;28;20028;-81
2021/05/18 11:40:28;;;;;;;10.93;5.00;;;;;;;;;;5106450;28;20035;-81
2021/05/18 11:42:54;;;;;;;12.33;5.47;;;;;;;;;;5107534;28;20028;-81
2021/05/18 11:45:20;;;;;;;8.37;4.70;;;;;;;;;;5103300;28;20128;-81
2021/05/18 11:47:47;;;;;;;11.27;5.47;;;;;;;;;;5097459;28;20044;-81
2021/05/18 11:50:16;;;;;;;11.57;5.47;;;;;;;;;;5101147;28;20027;-81
2021/05/18 11:52:41;;;;;;;10.43;5.27;;;;;;;;;;5104319;28;20102;-81
2021/05/18 11:55:17;;;;;;;9.23;4.70;;;;;;;;;;5105827;28;20093;-80
2021/05/18 11:57:42;;;;;;;7.90;4.07;;;;;;;;;;5108441;28;20070;-81
2021/05/18 12:00:17;;;;;;;9.10;3.70;;;;;;;;;;5104122;28;20032;-80
2021/05/18 12:02:42;;;;;;;8.30;3.80;;;;;;;;;;5085497;28;20082;-82
2021/05/18 12:05:09;;;;;;;8.07;4.20;;;;;;;;;;5089249;28;20434;-80
2021/05/18 12:07:34;;;;;;;9.00;3.77;;;;;;;;;;5105485;28;20043;-82
2021/05/18 12:09:59;;;;;;;7.33;3.33;;;;;;;;;;5086466;28;20360;-82
2021/05/18 12:12:25;;;;;;;8.40;3.43;;;;;;;;;;5095682;28;20047;-82
2021/05/18 12:14:51;;;;;;;6.67;3.07;;;;;;;;;;5103501;28;20024;-82
2021/05/18 12:17:31;;;;;;;7.10;3.33;;;;;;;;;;5103068;28;20035;-81
2021/05/18 12:19:57;;;;;;;6.63;3.22;;;;;;;;;;5102013;28;20477;-82
2021/05/18 12:22:23;;;;;;;6.88;2.78;;;;;;;;;;5096340;28;20036;-81
2021/05/18 12:24:48;;;;;;;6.73;3.03;;;;;;;;;;5087068;28;20027;-82
2021/05/18 12:27:14;;;;;;;6.30;2.77;;;;;;;;;;5099875;28;20409;-82
2021/05/18 12:29:56;;;;;;;5.93;2.70;;;;;;;;;;5106915;28;20085;-82
2021/05/18 12:32:34;;;;;;;6.05;2.55;;;;;;;;;;5103108;28;20027;-82
2021/05/18 12:35:05;;;;;;;7.45;2.70;;;;;;;;;;5085722;28;20020;-82
2021/05/18 12:37:31;;;;;;;8.45;2.30;;;;;;;;;;5106266;28;20036;-83
2021/05/18 12:39:57;;;;;;;6.57;2.67;;;;;;;;;;5104508;28;20096;-83
2021/05/18 12:42:27;;;;;;;5.47;2.40;;;;;;;;;;5105805;28;20032;-82
2021/05/18 12:44:52;;;;;;;5.45;2.15;;;;;;;;;;5102606;28;20054;-82
2021/05/18 12:47:44;;;;;;;6.07;2.38;;;;;;;;;;5068822;28;20032;-83
2021/05/18 12:50:14;;;;;;;5.45;1.90;;;;;;;;;;5096947;28;20058;-83
2021/05/18 12:52:49;;;;;;;6.97;2.40;;;;;;;;;;5102282;28;20111;-82
2021/05/18 12:55:25;;;;;;;4.05;1.80;;;;;;;;;;5101489;28;20081;-82
2021/05/18 12:58:01;;;;;;;5.40;1.77;;;;;;;;;;5102142;28;20108;-82
2021/05/18 13:00:31;;;;;;;3.50;1.50;;;;;;;;;;5083654;28;20031;-81
2021/05/18 13:03:08;;;;;;;3.17;1.30;;;;;;;;;;5100882;28;20036;-82
2021/05/18 13:05:33;;;;;;;4.25;1.65;;;;;;;;;;5103865;28;20016;-82
2021/05/18 13:08:09;;;;;;;5.07;2.10;;;;;;;;;;5104162;28;20047;-82
2021/05/18 13:10:43;;;;;;;3.70;1.73;;;;;;;;;;5096224;28;20025;-82
2021/05/18 13:13:08;;;;;;;3.55;1.70;;;;;;;;;;5080777;28;20023;-82
2021/05/18 13:15:34;;;;;;;4.68;1.95;;;;;;;;;;5100836;28;20032;-82
2021/05/18 13:18:00;;;;;;;3.70;1.70;;;;;;;;;;5089365;28;20024;-82
2021/05/18 13:20:34;;;;;;;5.75;1.92;;;;;;;;;;5101989;28;20115;-83
2021/05/18 13:23:01;;;;;;;3.67;1.80;;;;;;;;;;5101280;28;20043;-82
2021/05/18 13:28:11;;;;;;;4.63;2.03;;;;;;;;;;5088785;28;20078;-82
2021/05/18 13:30:37;;;;;;;3.83;1.92;;;;;;;;;;5096649;28;20025;-82
2021/05/18 13:33:04;;;;;;;5.78;1.70;;;;;;;;;;5101739;28;20028;-82
2021/05/18 13:35:30;;;;;;;4.38;2.03;;;;;;;;;;5099047;28;20039;-82
2021/05/18 13:37:57;;;;;;;3.70;1.40;;;;;;;;;;5101027;28;20476;-82
2021/05/18 13:40:24;;;;;;;5.43;1.85;;;;;;;;;;5101141;28;20381;-82
2021/05/18 13:42:51;;;;;;;3.63;1.42;;;;;;;;;;5101278;28;20024;-82
2021/05/18 13:45:17;;;;;;;3.80;2.10;;;;;;;;;;5081005;28;20055;-82
2021/05/18 13:47:42;;;;;;;3.47;1.70;;;;;;;;;;5103210;28;20028;-82
2021/05/18 13:50:08;;;;;;;3.95;1.65;;;;;;;;;;5100163;28;20494;-82
2021/05/18 13:52:33;;;;;;;4.95;2.30;;;;;;;;;;5080837;28;20021;-82
2021/05/18 13:54:59;;;;;;;4.38;1.92;;;;;;;;;;5094247;28;20055;-82
2021/05/18 13:57:25;;;;;;;6.35;1.80;;;;;;;;;;5099568;28;20034;-83
2021/05/18 13:59:50;;;;;;;4.47;1.60;;;;;;;;;;5101798;28;20040;-83
2021/05/18 14:02:16;;;;;;;4.85;1.60;;;;;;;;;;5088009;28;20024;-82
2021/05/18 14:04:42;;;;;;;4.55;1.83;;;;;;;;;;5100574;28;20028;-82
2021/05/18 14:09:57;;;;;;;3.20;1.70;;;;;;;;;;5101681;28;20056;-83
2021/05/18 14:12:22;;;;;;;4.18;1.77;;;;;;;;;;5101381;28;20031;-83
2021/05/18 14:14:48;;;;;;;5.33;1.70;;;;;;;;;;5098921;28;20031;-81
2021/05/18 14:17:13;;;;;;;4.17;2.33;;;;;;;;;;5090822;28;20028;-81
2021/05/18 14:19:38;;;;;;;5.77;2.40;;;;;;;;;;5100000;28;20032;-81
2021/05/18 14:22:04;;;;;;;6.77;2.50;;;;;;;;;;5091966;28;20086;-81
2021/05/18 14:24:51;;;;;;;6.20;2.37;;;;;;;;;;5100628;28;20071;-81
2021/05/18 14:27:19;;;;;;;7.03;3.63;;;;;;;;;;5100627;28;20082;-80
2021/05/18 14:29:45;;;;;;;6.87;2.47;;;;;;;;;;5082367;28;20110;-80
2021/05/18 14:32:11;;;;;;;4.23;1.97;;;;;;;;;;5099848;28;20051;-80
2021/05/18 14:34:36;;;;;;;7.00;2.80;;;;;;;;;;5101131;28;20123;-82
2021/05/18 14:37:02;;;;;;;5.37;2.50;;;;;;;;;;5097356;28;20040;-82
2021/05/18 14:39:49;;;;;;;5.23;2.60;;;;;;;;;;5100006;28;20043;-81
2021/05/18 14:44:56;;;;;;;7.70;2.90;;;;;;;;;;5098698;28;20042;-81
2021/05/18 14:47:24;;;;;;;6.80;2.70;;;;;;;;;;5100936;28;20028;-81
2021/05/18 14:55:18;;;;;;;5.37;2.40;;;;;;;;;;5097455;28;20040;-81
2021/05/18 14:57:44;;;;;;;6.20;2.70;;;;;;;;;;5100605;28;20388;-81
2021/05/18 15:00:09;;;;;;;6.70;3.07;;;;;;;;;;5077152;28;20040;-79
2021/05/18 15:02:35;;;;;;;6.03;3.10;;;;;;;;;;5086791;28;20019;-79
2021/05/18 15:05:00;;;;;;;8.27;3.47;;;;;;;;;;5090238;28;20096;-80
2021/05/18 15:07:26;;;;;;;7.73;3.27;;;;;;;;;;5088590;28;20088;-80
2021/05/18 15:09:52;;;;;;;9.27;3.73;;;;;;;;;;5098812;28;20132;-79
2021/05/18 15:12:17;;;;;;;5.67;2.60;;;;;;;;;;5094910;28;20028;-80
2021/05/18 15:14:43;;;;;;;6.27;3.00;;;;;;;;;;5090996;28;20020;-80
2021/05/18 15:17:08;;;;;;;5.00;2.63;;;;;;;;;;5085012;28;20024;-80
2021/05/18 15:19:34;;;;;;;7.20;2.77;;;;;;;;;;5095451;28;20110;-80
2021/05/18 15:21:59;;;;;;;6.17;2.80;;;;;;;;;;5097599;28;20020;-80
2021/05/18 15:24:25;;;;;;;7.80;3.27;;;;;;;;;;5096893;28;20034;-80
2021/05/18 15:26:51;;;;;;;6.97;3.40;;;;;;;;;;5095462;28;20150;-80
2021/05/18 15:29:16;;;;;;;6.03;2.70;;;;;;;;;;5096708;28;20036;-80
2021/05/18 15:31:41;;;;;;;7.27;3.30;;;;;;;;;;5097000;28;20020;-80
2021/05/18 15:34:07;;;;;;;7.13;3.00;;;;;;;;;;5079362;28;20114;-80
2021/05/18 15:36:32;;;;;;;8.43;3.00;;;;;;;;;;5099587;28;20020;-80
2021/05/18 15:38:57;;;;;;;6.53;3.30;;;;;;;;;;5098331;28;20103;-80
2021/05/18 15:41:23;;;;;;;6.17;3.10;;;;;;;;;;5088674;28;20460;-80
2021/05/18 15:43:48;;;;;;;5.50;2.30;;;;;;;;;;5097287;28;20177;-80
2021/05/18 15:46:15;;;;;;;8.40;2.73;;;;;;;;;;5097310;28;20043;-80
2021/05/18 15:48:40;;;;;;;6.00;2.80;;;;;;;;;;5091918;28;20027;-80
2021/05/18 15:51:06;;;;;;;6.10;2.70;;;;;;;;;;5088385;28;20021;-80
2021/05/18 15:53:31;;;;;;;5.03;2.57;;;;;;;;;;5099075;28;20046;-80
2021/05/18 15:55:59;;;;;;;5.07;2.50;;;;;;;;;;5090912;28;20377;-80
2021/05/18 15:58:25;;;;;;;5.53;2.60;;;;;;;;;;5086123;28;20020;-80
2021/05/18 16:00:52;;;;;;;6.87;2.40;;;;;;;;;;5079045;28;20093;-80
2021/05/18 16:03:18;;;;;;;5.40;2.40;;;;;;;;;;5086284;28;20053;-79
2021/05/18 16:05:43;;;;;;;4.23;2.30;;;;;;;;;;5067328;28;20024;-79
2021/05/18 16:11:18;;;;;;;4.40;2.00;;;;;;;;;;5090886;28;20028;-80
2021/05/18 16:13:44;;;;;;;4.83;2.00;;;;;;;;;;5088436;28;20511;-80
2021/05/18 16:16:10;;;;;;;4.55;1.90;;;;;;;;;;5081917;28;20128;-78
2021/05/18 16:18:36;;;;;;;3.30;1.70;;;;;;;;;;5086791;28;20020;-78
2021/05/18 16:21:02;;;;;;;2.92;1.40;;;;;;;;;;5097926;28;20027;-79
2021/05/18 16:23:28;;;;;;;2.85;1.30;;;;;;;;;;5085331;28;20524;-79
2021/05/18 16:25:54;;;;;;;2.55;1.20;;;;;;;;;;5099152;28;20030;-80
2021/05/18 16:28:19;;;;;;;3.60;1.40;;;;;;;;;;5098762;28;20030;-80
2021/05/18 16:30:45;;;;;;;2.80;1.35;;;;;;;;;;5093295;28;20049;-81
2021/05/18 16:33:10;;;;;;;2.33;1.02;;;;;;;;;;5085695;28;20345;-80
2021/05/18 16:35:35;;;;;;;4.28;1.38;;;;;;;;;;5097308;28;20024;-80
2021/05/18 16:38:02;;;;;;;3.20;1.30;;;;;;;;;;5083195;28;20051;-80
2021/05/18 16:40:27;;;;;;;2.50;1.30;;;;;;;;;;5094620;28;20571;-80
2021/05/18 16:42:53;;;;;;;4.40;1.38;;;;;;;;;;5093788;28;20024;-81
2021/05/18 16:45:18;;;;;;;2.67;1.20;;;;;;;;;;5089647;28;20056;-80
2021/05/18 16:47:43;;;;;;;2.22;1.23;;;;;;;;;;5097638;28;20016;-80
2021/05/18 16:50:09;;;;;;;3.30;1.60;;;;;;;;;;5096075;28;20028;-80
2021/05/18 16:52:35;;;;;;;2.80;1.30;;;;;;;;;;5090027;28;20032;-80
2021/05/18 16:55:01;;;;;;;3.80;1.40;;;;;;;;;;5088474;28;20051;-80
2021/05/18 16:57:26;;;;;;;3.77;1.70;;;;;;;;;;5095411;28;20032;-80
2021/05/18 16:59:51;;;;;;;3.40;1.60;;;;;;;;;;5096455;28;20024;-80
2021/05/18 17:02:17;;;;;;;5.63;1.60;;;;;;;;;;5094811;28;20043;-81
2021/05/18 17:04:43;;;;;;;3.20;1.60;;;;;;;;;;5098243;28;20532;-81
2021/05/18 17:07:08;;;;;;;3.70;1.87;;;;;;;;;;5095119;28;20089;-80
2021/05/18 17:09:33;;;;;;;3.15;1.33;;;;;;;;;;5073738;28;20027;-80
2021/05/18 17:12:01;;;;;;;2.90;1.35;;;;;;;;;;5091994;28;20012;-80
2021/05/18 17:14:26;;;;;;;3.38;1.40;;;;;;;;;;5086907;28;20039;-80
2021/05/18 17:16:51;;;;;;;3.10;1.50;;;;;;;;;;5092894;28;20020;-80
2021/05/18 17:19:16;;;;;;;3.33;1.40;;;;;;;;;;5094810;28;20061;-80
2021/05/18 17:21:42;;;;;;;3.90;1.70;;;;;;;;;;5072830;28;20025;-81
2021/05/18 17:24:08;;;;;;;4.27;1.80;;;;;;;;;;5097221;28;20036;-81
2021/05/18 17:26:33;;;;;;;3.60;1.57;;;;;;;;;;5090810;28;20020;-81
2021/05/18 17:28:59;;;;;;;3.87;1.87;;;;;;;;;;5074796;28;20531;-81
2021/05/18 17:31:24;;;;;;;4.50;2.03;;;;;;;;;;5077529;28;20502;-80
2021/05/18 17:33:49;;;;;;;3.43;1.73;;;;;;;;;;5091605;28;20024;-80
2021/05/18 17:36:15;;;;;;;3.80;1.60;;;;;;;;;;5096789;28;20039;-80
2021/05/18 17:38:40;;;;;;;4.17;1.87;;;;;;;;;;5096425;28;20027;-80
2021/05/18 17:41:06;;;;;;;3.57;1.80;;;;;;;;;;5094874;28;20128;-82
2021/05/18 17:43:32;;;;;;;5.50;2.00;;;;;;;;;;5095307;28;20009;-81
2021/05/18 17:46:00;;;;;;;3.37;1.70;;;;;;;;;;5083864;28;20028;-80
2021/05/18 17:48:26;;;;;;;4.30;2.20;;;;;;;;;;5094243;28;20016;-81
2021/05/18 17:50:51;;;;;;;3.53;1.70;;;;;;;;;;5093256;28;20016;-81
2021/05/18 17:53:16;;;;;;;4.10;1.97;;;;;;;;;;5093838;28;20020;-80
2021/05/18 17:55:42;;;;;;;5.47;1.90;;;;;;;;;;5095013;28;20425;-80
2021/05/18 17:58:10;;;;;;;4.17;2.00;;;;;;;;;;5090388;28;20135;-80
2021/05/18 18:00:35;;;;;;;4.50;2.17;;;;;;;;;;5089244;28;20583;-80
2021/05/18 18:03:00;;;;;;;5.93;2.00;;;;;;;;;;5091630;28;20035;-80
2021/05/18 18:05:25;;;;;;;5.97;2.30;;;;;;;;;;5087266;28;20032;-80
2021/05/18 18:07:51;;;;;;;8.30;2.47;;;;;;;;;;5091750;28;20015;-80
2021/05/18 18:10:17;;;;;;;5.80;2.40;;;;;;;;;;5094584;28;20028;-80
2021/05/18 18:12:42;;;;;;;7.00;2.30;;;;;;;;;;5106612;28;20051;-79
2021/05/18 18:15:07;;;;;;;5.60;2.33;;;;;;;;;;5095986;28;20020;-79
2021/05/18 18:17:33;;;;;;;6.27;2.33;;;;;;;;;;5101862;28;20020;-80
2021/05/18 18:19:58;;;;;;;4.37;2.23;;;;;;;;;;5103757;28;20024;-80
2021/05/18 18:22:25;;;;;;;4.77;2.27;;;;;;;;;;5082374;28;20035;-80
2021/05/18 18:24:51;;;;;;;4.90;2.33;;;;;;;;;;5102881;28;20032;-80
2021/05/18 18:27:18;;;;;;;6.50;2.27;;;;;;;;;;5105977;28;20024;-81
2021/05/18 18:29:43;;;;;;;5.03;2.40;;;;;;;;;;5106517;28;20415;-80
2021/05/18 18:32:09;;;;;;;5.37;2.40;;;;;;;;;;5099672;28;20045;-80
2021/05/18 18:34:35;;;;;;;7.30;2.37;;;;;;;;;;5104443;28;20388;-80
2021/05/18 18:37:02;;;;;;;5.30;2.07;;;;;;;;;;5103085;28;20023;-80
2021/05/18 18:39:28;;;;;;;4.40;2.00;;;;;;;;;;5104947;28;20133;-80
2021/05/18 18:41:53;;;;;;;5.37;2.17;;;;;;;;;;5104432;28;20028;-80
2021/05/18 18:44:18;;;;;;;5.47;2.43;;;;;;;;;;5104398;28;20048;-80
2021/05/18 18:46:45;;;;;;;4.73;2.47;;;;;;;;;;5104805;28;20034;-81
2021/05/18 18:49:13;;;;;;;5.73;2.50;;;;;;;;;;5108221;28;20452;-80
2021/05/18 18:51:38;;;;;;;4.87;2.23;;;;;;;;;;5105299;28;20034;-80
2021/05/18 18:54:04;;;;;;;5.27;2.50;;;;;;;;;;5103519;28;20028;-80
2021/05/18 18:56:30;;;;;;;6.60;2.70;;;;;;;;;;5093448;28;20097;-79
2021/05/18 18:58:56;;;;;;;8.03;2.73;;;;;;;;;;5104647;28;20032;-79
2021/05/18 19:01:21;;;;;;;5.47;2.50;;;;;;;;;;5103465;28;20056;-80
2021/05/18 19:04:00;;;;;;;5.53;2.60;;;;;;;;;;5099115;28;20028;-80
2021/05/18 19:13:41;;;;;;;2.50;1.23;;;;;;;;;;5090558;28;20448;-80
2021/05/18 19:16:06;;;;;;;2.63;1.30;;;;;;;;;;5095306;28;20215;-80
2021/05/18 19:18:31;;;;;;;3.03;1.37;;;;;;;;;;5096629;28;20306;-80
2021/05/18 19:20:57;;;;;;;2.90;1.30;;;;;;;;;;5103258;28;20421;-80
2021/05/18 19:23:23;;;;;;;2.70;1.20;;;;;;;;;;5095730;28;20036;-80
2021/05/18 19:25:49;;;;;;;3.70;1.60;;;;;;;;;;5072729;28;20020;-80
2021/05/18 19:28:16;;;;;;;3.80;1.53;;;;;;;;;;5090951;28;20078;-80
2021/05/18 19:30:43;;;;;;;3.80;1.63;;;;;;;;;;5085090;28;20032;-80
2021/05/18 19:33:09;;;;;;;4.27;1.87;;;;;;;;;;5104084;28;20095;-80
2021/05/18 19:44:01;;;;;;;4.13;2.03;;;;;;;;;;5093476;28;20027;-81
2021/05/18 19:49:15;;;;;;;6.17;2.53;;;;;;;;;;5093053;28;20485;-80
2021/05/18 19:51:42;;;;;;;5.07;2.30;;;;;;;;;;5096011;28;20628;-80
2021/05/18 19:54:12;;;;;;;5.17;2.40;;;;;;;;;;5090115;28;20028;-80